sensor_id;sensor_type;location;lat;lon;timestamp;temperature;humidity
17202;DHT22;8717;53.588;10.176;2023-05-07T00:00:01;8.40;99.90
17202;DHT22;8717;53.588;10.176;2023-05-07T00:02:30;8.40;99.90
17202;DHT22;8717;53.588;10.176;2023-05-07T00:04:58;8.40;99.90
17202;DHT22;8717;53.588;10.176;2023-05-07T00:07:25;8.40;99.90
17202;DHT22;8717;53.588;10.176;2023-05-07T00:09:53;8.30;99.90
17202;DHT22;8717;53.588;10.176;2023-05-07T00:12:21;8.40;99.90
17202;DHT22;8717;53.588;10.176;2023-05-07T00:14:48;8.30;99.90
17202;DHT22;8717;53.588;10.176;2023-05-07T00:17:15;8.30;99.90
17202;DHT22;8717;53.588;10.176;2023-05-07T00:19:42;8.30;99.90
17202;DHT22;8717;53.588;10.176;2023-05-07T00:22:09;8.30;99.90
17202;DHT22;8717;53.588;10.176;2023-05-07T00:24:36;8.30;99.90
17202;DHT22;8717;53.588;10.176;2023-05-07T00:27:05;8.30;99.90
17202;DHT22;8717;53.588;10.176;2023-05-07T00:29:32;8.30;99.90
17202;DHT22;8717;53.588;10.176;2023-05-07T00:31:59;8.20;99.90
17202;DHT22;8717;53.588;10.176;2023-05-07T00:34:25;8.20;99.90
17202;DHT22;8717;53.588;10.176;2023-05-07T00:36:52;8.10;99.90
17202;DHT22;8717;53.588;10.176;2023-05-07T00:39:19;8.20;99.90
17202;DHT22;8717;53.588;10.176;2023-05-07T00:41:46;8.10;99.90
17202;DHT22;8717;53.588;10.176;2023-05-07T00:44:15;8.10;99.90
17202;DHT22;8717;53.588;10.176;2023-05-07T00:46:43;8.10;99.90
17202;DHT22;8717;53.588;10.176;2023-05-07T00:49:14;8.00;99.90
17202;DHT22;8717;53.588;10.176;2023-05-07T00:51:41;8.10;99.90
17202;DHT22;8717;53.588;10.176;2023-05-07T00:54:08;8.00;99.90
17202;DHT22;8717;53.588;10.176;2023-05-07T00:56:36;8.00;99.90
17202;DHT22;8717;53.588;10.176;2023-05-07T00:59:05;8.10;99.90
17202;DHT22;8717;53.588;10.176;2023-05-07T01:01:34;8.10;99.90
17202;DHT22;8717;53.588;10.176;2023-05-07T01:04:04;8.10;99.90
17202;DHT22;8717;53.588;10.176;2023-05-07T01:06:32;8.10;99.90
17202;DHT22;8717;53.588;10.176;2023-05-07T01:09:00;8.20;99.90
17202;DHT22;8717;53.588;10.176;2023-05-07T01:11:30;8.20;99.90
17202;DHT22;8717;53.588;10.176;2023-05-07T01:13:58;8.20;99.90
17202;DHT22;8717;53.588;10.176;2023-05-07T01:16:26;8.20;99.90
17202;DHT22;8717;53.588;10.176;2023-05-07T01:18:54;8.20;99.90
17202;DHT22;8717;53.588;10.176;2023-05-07T01:21:25;8.20;99.90
17202;DHT22;8717;53.588;10.176;2023-05-07T01:23:57;8.20;99.90
17202;DHT22;8717;53.588;10.176;2023-05-07T01:26:24;8.20;99.90
17202;DHT22;8717;53.588;10.176;2023-05-07T01:28:51;8.30;99.90
17202;DHT22;8717;53.588;10.176;2023-05-07T01:31:18;8.20;99.90
17202;DHT22;8717;53.588;10.176;2023-05-07T01:33:46;8.30;99.90
17202;DHT22;8717;53.588;10.176;2023-05-07T01:36:17;8.30;99.90
17202;DHT22;8717;53.588;10.176;2023-05-07T01:38:54;8.30;99.90
17202;DHT22;8717;53.588;10.176;2023-05-07T01:41:25;8.30;99.90
17202;DHT22;8717;53.588;10.176;2023-05-07T01:43:52;8.20;99.90
17202;DHT22;8717;53.588;10.176;2023-05-07T01:46:20;8.30;99.90
17202;DHT22;8717;53.588;10.176;2023-05-07T01:48:47;8.30;99.90
17202;DHT22;8717;53.588;10.176;2023-05-07T01:51:14;8.30;99.90
17202;DHT22;8717;53.588;10.176;2023-05-07T01:53:42;8.30;99.90
17202;DHT22;8717;53.588;10.176;2023-05-07T01:56:10;8.30;99.90
17202;DHT22;8717;53.588;10.176;2023-05-07T01:58:41;8.30;99.90
17202;DHT22;8717;53.588;10.176;2023-05-07T02:01:08;8.30;99.90
17202;DHT22;8717;53.588;10.176;2023-05-07T02:03:34;8.30;99.90
17202;DHT22;8717;53.588;10.176;2023-05-07T02:06:09;8.30;99.90
17202;DHT22;8717;53.588;10.176;2023-05-07T02:08:38;8.40;99.90
17202;DHT22;8717;53.588;10.176;2023-05-07T02:11:05;8.40;99.90
17202;DHT22;8717;53.588;10.176;2023-05-07T02:13:34;8.30;99.90
17202;DHT22;8717;53.588;10.176;2023-05-07T02:16:03;8.30;99.90
17202;DHT22;8717;53.588;10.176;2023-05-07T02:18:31;8.30;99.90
17202;DHT22;8717;53.588;10.176;2023-05-07T02:20:58;8.30;99.90
17202;DHT22;8717;53.588;10.176;2023-05-07T02:23:25;8.30;99.90
17202;DHT22;8717;53.588;10.176;2023-05-07T02:25:51;8.30;99.90
17202;DHT22;8717;53.588;10.176;2023-05-07T02:28:18;8.30;99.90
17202;DHT22;8717;53.588;10.176;2023-05-07T02:30:52;8.20;99.90
17202;DHT22;8717;53.588;10.176;2023-05-07T02:33:21;8.20;99.90
17202;DHT22;8717;53.588;10.176;2023-05-07T02:35:48;8.20;99.90
17202;DHT22;8717;53.588;10.176;2023-05-07T02:38:15;8.20;99.90
17202;DHT22;8717;53.588;10.176;2023-05-07T02:40:43;8.20;99.90
17202;DHT22;8717;53.588;10.176;2023-05-07T02:43:10;8.30;99.90
17202;DHT22;8717;53.588;10.176;2023-05-07T02:45:37;8.30;99.90
17202;DHT22;8717;53.588;10.176;2023-05-07T02:48:05;8.30;99.90
17202;DHT22;8717;53.588;10.176;2023-05-07T02:50:34;8.30;99.90
17202;DHT22;8717;53.588;10.176;2023-05-07T02:53:01;8.30;99.90
17202;DHT22;8717;53.588;10.176;2023-05-07T02:55:28;8.30;99.90
17202;DHT22;8717;53.588;10.176;2023-05-07T02:57:55;8.30;99.90
17202;DHT22;8717;53.588;10.176;2023-05-07T03:00:23;8.30;99.90
17202;DHT22;8717;53.588;10.176;2023-05-07T03:03:09;8.30;99.90
17202;DHT22;8717;53.588;10.176;2023-05-07T03:05:38;8.30;99.90
17202;DHT22;8717;53.588;10.176;2023-05-07T03:08:05;8.30;99.90
17202;DHT22;8717;53.588;10.176;2023-05-07T03:10:32;8.30;99.90
17202;DHT22;8717;53.588;10.176;2023-05-07T03:12:59;8.30;99.90
17202;DHT22;8717;53.588;10.176;2023-05-07T03:15:26;8.30;99.90
17202;DHT22;8717;53.588;10.176;2023-05-07T03:17:53;8.30;99.90
17202;DHT22;8717;53.588;10.176;2023-05-07T03:20:19;8.30;99.90
17202;DHT22;8717;53.588;10.176;2023-05-07T03:22:48;8.30;99.90
17202;DHT22;8717;53.588;10.176;2023-05-07T03:25:14;8.30;99.90
17202;DHT22;8717;53.588;10.176;2023-05-07T03:27:41;8.20;99.90
17202;DHT22;8717;53.588;10.176;2023-05-07T03:30:09;8.20;99.90
17202;DHT22;8717;53.588;10.176;2023-05-07T03:32:36;8.20;99.90
17202;DHT22;8717;53.588;10.176;2023-05-07T03:35:07;8.20;99.90
17202;DHT22;8717;53.588;10.176;2023-05-07T03:37:34;8.20;99.90
17202;DHT22;8717;53.588;10.176;2023-05-07T03:40:02;8.20;99.90
17202;DHT22;8717;53.588;10.176;2023-05-07T03:42:32;8.20;99.90
17202;DHT22;8717;53.588;10.176;2023-05-07T03:44:59;8.20;99.90
17202;DHT22;8717;53.588;10.176;2023-05-07T03:47:26;8.20;99.90
17202;DHT22;8717;53.588;10.176;2023-05-07T03:49:54;8.20;99.90
17202;DHT22;8717;53.588;10.176;2023-05-07T03:52:23;8.20;99.90
17202;DHT22;8717;53.588;10.176;2023-05-07T03:54:53;8.20;99.90
17202;DHT22;8717;53.588;10.176;2023-05-07T03:57:22;8.20;99.90
17202;DHT22;8717;53.588;10.176;2023-05-07T03:59:49;8.20;99.90
17202;DHT22;8717;53.588;10.176;2023-05-07T04:02:16;8.20;99.90
17202;DHT22;8717;53.588;10.176;2023-05-07T04:04:43;8.10;99.90
17202;DHT22;8717;53.588;10.176;2023-05-07T04:07:10;8.20;99.90
17202;DHT22;8717;53.588;10.176;2023-05-07T04:09:41;8.20;99.90
17202;DHT22;8717;53.588;10.176;2023-05-07T04:12:08;8.10;99.90
17202;DHT22;8717;53.588;10.176;2023-05-07T04:14:37;8.20;99.90
17202;DHT22;8717;53.588;10.176;2023-05-07T04:17:03;8.20;99.90
17202;DHT22;8717;53.588;10.176;2023-05-07T04:19:33;8.20;99.90
17202;DHT22;8717;53.588;10.176;2023-05-07T04:22:00;8.20;99.90
17202;DHT22;8717;53.588;10.176;2023-05-07T04:24:31;8.20;99.90
17202;DHT22;8717;53.588;10.176;2023-05-07T04:27:00;8.30;99.90
17202;DHT22;8717;53.588;10.176;2023-05-07T04:29:27;8.30;99.90
17202;DHT22;8717;53.588;10.176;2023-05-07T04:31:55;8.30;99.90
17202;DHT22;8717;53.588;10.176;2023-05-07T04:34:24;8.30;99.90
17202;DHT22;8717;53.588;10.176;2023-05-07T04:36:52;8.30;99.90
17202;DHT22;8717;53.588;10.176;2023-05-07T04:39:18;8.40;99.90
17202;DHT22;8717;53.588;10.176;2023-05-07T04:41:47;8.40;99.90
17202;DHT22;8717;53.588;10.176;2023-05-07T04:44:14;8.40;99.90
17202;DHT22;8717;53.588;10.176;2023-05-07T04:46:41;8.40;99.90
17202;DHT22;8717;53.588;10.176;2023-05-07T04:49:09;8.40;99.90
17202;DHT22;8717;53.588;10.176;2023-05-07T04:51:36;8.40;99.90
17202;DHT22;8717;53.588;10.176;2023-05-07T04:54:03;8.40;99.90
17202;DHT22;8717;53.588;10.176;2023-05-07T04:56:30;8.40;99.90
17202;DHT22;8717;53.588;10.176;2023-05-07T04:58:59;8.50;99.90
17202;DHT22;8717;53.588;10.176;2023-05-07T05:01:25;8.50;99.90
17202;DHT22;8717;53.588;10.176;2023-05-07T05:03:52;8.50;99.90
17202;DHT22;8717;53.588;10.176;2023-05-07T05:06:21;8.50;99.90
17202;DHT22;8717;53.588;10.176;2023-05-07T05:08:48;8.50;99.90
17202;DHT22;8717;53.588;10.176;2023-05-07T05:11:16;8.60;99.90
17202;DHT22;8717;53.588;10.176;2023-05-07T05:13:42;8.60;99.90
17202;DHT22;8717;53.588;10.176;2023-05-07T05:16:15;8.50;99.90
17202;DHT22;8717;53.588;10.176;2023-05-07T05:18:42;8.60;99.90
17202;DHT22;8717;53.588;10.176;2023-05-07T05:21:11;8.60;99.90
17202;DHT22;8717;53.588;10.176;2023-05-07T05:23:41;8.60;99.90
17202;DHT22;8717;53.588;10.176;2023-05-07T05:26:08;8.60;99.90
17202;DHT22;8717;53.588;10.176;2023-05-07T05:28:36;8.70;99.90
17202;DHT22;8717;53.588;10.176;2023-05-07T05:31:04;8.70;99.90
17202;DHT22;8717;53.588;10.176;2023-05-07T05:33:34;8.70;99.90
17202;DHT22;8717;53.588;10.176;2023-05-07T05:36:04;8.70;99.90
17202;DHT22;8717;53.588;10.176;2023-05-07T05:38:31;8.80;99.90
17202;DHT22;8717;53.588;10.176;2023-05-07T05:40:59;8.80;99.90
17202;DHT22;8717;53.588;10.176;2023-05-07T05:43:28;8.80;99.90
17202;DHT22;8717;53.588;10.176;2023-05-07T05:45:55;8.80;99.90
17202;DHT22;8717;53.588;10.176;2023-05-07T05:48:23;8.90;99.90
17202;DHT22;8717;53.588;10.176;2023-05-07T05:50:50;8.90;99.90
17202;DHT22;8717;53.588;10.176;2023-05-07T05:53:18;8.90;99.90
17202;DHT22;8717;53.588;10.176;2023-05-07T05:55:44;8.90;99.90
17202;DHT22;8717;53.588;10.176;2023-05-07T05:58:13;9.00;99.90
17202;DHT22;8717;53.588;10.176;2023-05-07T06:00:44;9.10;99.90
17202;DHT22;8717;53.588;10.176;2023-05-07T06:03:11;9.10;99.90
17202;DHT22;8717;53.588;10.176;2023-05-07T06:05:38;9.20;99.90
17202;DHT22;8717;53.588;10.176;2023-05-07T06:08:04;9.20;99.90
17202;DHT22;8717;53.588;10.176;2023-05-07T06:10:33;9.30;99.90
17202;DHT22;8717;53.588;10.176;2023-05-07T06:13:00;9.30;99.90
17202;DHT22;8717;53.588;10.176;2023-05-07T06:15:29;9.40;99.90
17202;DHT22;8717;53.588;10.176;2023-05-07T06:18:01;9.40;99.90
17202;DHT22;8717;53.588;10.176;2023-05-07T06:20:27;9.40;99.90
17202;DHT22;8717;53.588;10.176;2023-05-07T06:22:54;9.40;99.90
17202;DHT22;8717;53.588;10.176;2023-05-07T06:25:21;9.40;99.90
17202;DHT22;8717;53.588;10.176;2023-05-07T06:27:48;9.40;99.90
17202;DHT22;8717;53.588;10.176;2023-05-07T06:30:15;9.40;99.90
17202;DHT22;8717;53.588;10.176;2023-05-07T06:32:43;9.40;99.90
17202;DHT22;8717;53.588;10.176;2023-05-07T06:35:11;9.40;99.90
17202;DHT22;8717;53.588;10.176;2023-05-07T06:37:40;9.40;99.90
17202;DHT22;8717;53.588;10.176;2023-05-07T06:40:12;9.40;99.90
17202;DHT22;8717;53.588;10.176;2023-05-07T06:42:39;9.40;99.90
17202;DHT22;8717;53.588;10.176;2023-05-07T06:45:22;9.50;99.90
17202;DHT22;8717;53.588;10.176;2023-05-07T06:47:53;9.50;99.90
17202;DHT22;8717;53.588;10.176;2023-05-07T06:50:20;9.60;99.90
17202;DHT22;8717;53.588;10.176;2023-05-07T06:52:47;9.60;99.90
17202;DHT22;8717;53.588;10.176;2023-05-07T06:55:14;9.60;99.90
17202;DHT22;8717;53.588;10.176;2023-05-07T06:57:41;9.60;99.90
17202;DHT22;8717;53.588;10.176;2023-05-07T07:00:08;9.70;99.90
17202;DHT22;8717;53.588;10.176;2023-05-07T07:02:43;9.60;99.90
17202;DHT22;8717;53.588;10.176;2023-05-07T07:05:12;9.70;99.90
17202;DHT22;8717;53.588;10.176;2023-05-07T07:07:39;9.70;99.90
17202;DHT22;8717;53.588;10.176;2023-05-07T07:10:07;9.80;99.90
17202;DHT22;8717;53.588;10.176;2023-05-07T07:12:34;9.80;99.90
17202;DHT22;8717;53.588;10.176;2023-05-07T07:15:01;9.80;99.90
17202;DHT22;8717;53.588;10.176;2023-05-07T07:17:28;9.90;99.90
17202;DHT22;8717;53.588;10.176;2023-05-07T07:19:55;10.00;99.90
17202;DHT22;8717;53.588;10.176;2023-05-07T07:22:23;10.00;99.90
17202;DHT22;8717;53.588;10.176;2023-05-07T07:24:50;10.00;99.90
17202;DHT22;8717;53.588;10.176;2023-05-07T07:27:17;10.10;99.90
17202;DHT22;8717;53.588;10.176;2023-05-07T07:29:44;10.10;99.90
17202;DHT22;8717;53.588;10.176;2023-05-07T07:32:11;10.20;99.90
17202;DHT22;8717;53.588;10.176;2023-05-07T07:34:37;10.20;99.90
17202;DHT22;8717;53.588;10.176;2023-05-07T07:37:04;10.20;99.90
17202;DHT22;8717;53.588;10.176;2023-05-07T07:39:33;10.30;99.90
17202;DHT22;8717;53.588;10.176;2023-05-07T07:42:00;10.40;99.90
17202;DHT22;8717;53.588;10.176;2023-05-07T07:44:28;10.50;99.90
17202;DHT22;8717;53.588;10.176;2023-05-07T07:46:59;10.60;99.90
17202;DHT22;8717;53.588;10.176;2023-05-07T07:49:26;10.60;99.90
17202;DHT22;8717;53.588;10.176;2023-05-07T07:51:55;10.70;99.90
17202;DHT22;8717;53.588;10.176;2023-05-07T07:54:22;10.80;99.90
17202;DHT22;8717;53.588;10.176;2023-05-07T07:56:50;10.80;99.90
17202;DHT22;8717;53.588;10.176;2023-05-07T07:59:17;10.80;99.90
17202;DHT22;8717;53.588;10.176;2023-05-07T08:01:45;10.80;99.90
17202;DHT22;8717;53.588;10.176;2023-05-07T08:04:13;10.80;99.90
17202;DHT22;8717;53.588;10.176;2023-05-07T08:06:41;10.80;99.90
17202;DHT22;8717;53.588;10.176;2023-05-07T08:09:09;10.80;99.90
17202;DHT22;8717;53.588;10.176;2023-05-07T08:11:38;10.80;99.90
17202;DHT22;8717;53.588;10.176;2023-05-07T08:14:06;10.80;99.90
17202;DHT22;8717;53.588;10.176;2023-05-07T08:16:33;10.80;99.90
17202;DHT22;8717;53.588;10.176;2023-05-07T08:19:01;10.80;99.90
17202;DHT22;8717;53.588;10.176;2023-05-07T08:21:27;10.80;99.90
17202;DHT22;8717;53.588;10.176;2023-05-07T08:23:54;10.90;99.90
17202;DHT22;8717;53.588;10.176;2023-05-07T08:26:21;10.90;99.90
17202;DHT22;8717;53.588;10.176;2023-05-07T08:28:47;10.90;99.90
17202;DHT22;8717;53.588;10.176;2023-05-07T08:31:15;11.00;99.90
17202;DHT22;8717;53.588;10.176;2023-05-07T08:33:44;11.00;99.90
17202;DHT22;8717;53.588;10.176;2023-05-07T08:36:11;11.10;99.90
17202;DHT22;8717;53.588;10.176;2023-05-07T08:38:38;11.20;99.90
17202;DHT22;8717;53.588;10.176;2023-05-07T08:41:06;11.30;99.90
17202;DHT22;8717;53.588;10.176;2023-05-07T08:43:33;11.40;99.90
17202;DHT22;8717;53.588;10.176;2023-05-07T08:46:02;11.50;99.90
17202;DHT22;8717;53.588;10.176;2023-05-07T08:48:36;11.60;99.90
17202;DHT22;8717;53.588;10.176;2023-05-07T08:51:12;11.60;99.90
17202;DHT22;8717;53.588;10.176;2023-05-07T08:53:40;11.80;99.90
17202;DHT22;8717;53.588;10.176;2023-05-07T08:56:10;11.80;99.90
17202;DHT22;8717;53.588;10.176;2023-05-07T08:58:36;11.90;99.90
17202;DHT22;8717;53.588;10.176;2023-05-07T09:01:08;11.90;99.90
17202;DHT22;8717;53.588;10.176;2023-05-07T09:03:37;11.90;99.90
17202;DHT22;8717;53.588;10.176;2023-05-07T09:06:05;11.90;99.90
17202;DHT22;8717;53.588;10.176;2023-05-07T09:08:33;11.90;99.90
17202;DHT22;8717;53.588;10.176;2023-05-07T09:11:02;12.00;99.90
17202;DHT22;8717;53.588;10.176;2023-05-07T09:13:29;12.00;99.90
17202;DHT22;8717;53.588;10.176;2023-05-07T09:15:57;12.00;99.90
17202;DHT22;8717;53.588;10.176;2023-05-07T09:18:24;12.00;99.90
17202;DHT22;8717;53.588;10.176;2023-05-07T09:20:54;12.10;99.90
17202;DHT22;8717;53.588;10.176;2023-05-07T09:23:21;12.10;99.90
17202;DHT22;8717;53.588;10.176;2023-05-07T09:25:48;12.10;99.90
17202;DHT22;8717;53.588;10.176;2023-05-07T09:28:21;12.20;99.90
17202;DHT22;8717;53.588;10.176;2023-05-07T09:30:48;12.20;99.90
17202;DHT22;8717;53.588;10.176;2023-05-07T09:33:15;12.30;99.90
17202;DHT22;8717;53.588;10.176;2023-05-07T09:35:48;12.30;99.90
17202;DHT22;8717;53.588;10.176;2023-05-07T09:38:20;12.40;99.90
17202;DHT22;8717;53.588;10.176;2023-05-07T09:41:01;12.40;99.90
17202;DHT22;8717;53.588;10.176;2023-05-07T09:43:32;12.40;99.90
17202;DHT22;8717;53.588;10.176;2023-05-07T09:46:03;12.40;99.90
17202;DHT22;8717;53.588;10.176;2023-05-07T09:48:30;12.50;99.90
17202;DHT22;8717;53.588;10.176;2023-05-07T09:51:02;12.50;99.90
17202;DHT22;8717;53.588;10.176;2023-05-07T09:53:33;12.60;99.90
17202;DHT22;8717;53.588;10.176;2023-05-07T09:56:03;12.70;99.90
17202;DHT22;8717;53.588;10.176;2023-05-07T09:58:32;12.80;99.90
17202;DHT22;8717;53.588;10.176;2023-05-07T10:01:01;12.90;99.90
17202;DHT22;8717;53.588;10.176;2023-05-07T10:03:29;13.00;99.90
17202;DHT22;8717;53.588;10.176;2023-05-07T10:06:02;13.00;99.90
17202;DHT22;8717;53.588;10.176;2023-05-07T10:08:30;13.00;99.90
17202;DHT22;8717;53.588;10.176;2023-05-07T10:11:01;13.10;99.90
17202;DHT22;8717;53.588;10.176;2023-05-07T10:13:30;13.20;99.90
17202;DHT22;8717;53.588;10.176;2023-05-07T10:15:59;13.30;99.90
17202;DHT22;8717;53.588;10.176;2023-05-07T10:18:32;13.50;99.90
17202;DHT22;8717;53.588;10.176;2023-05-07T10:21:07;13.70;99.90
17202;DHT22;8717;53.588;10.176;2023-05-07T10:23:35;13.90;99.90
17202;DHT22;8717;53.588;10.176;2023-05-07T10:26:07;14.00;99.90
17202;DHT22;8717;53.588;10.176;2023-05-07T10:28:38;14.20;99.70
17202;DHT22;8717;53.588;10.176;2023-05-07T10:31:37;14.20;99.80
17202;DHT22;8717;53.588;10.176;2023-05-07T10:34:09;14.20;99.60
17202;DHT22;8717;53.588;10.176;2023-05-07T10:36:37;14.30;99.90
17202;DHT22;8717;53.588;10.176;2023-05-07T10:39:06;14.40;99.90
17202;DHT22;8717;53.588;10.176;2023-05-07T10:41:34;14.50;99.90
17202;DHT22;8717;53.588;10.176;2023-05-07T10:44:02;14.60;99.90
17202;DHT22;8717;53.588;10.176;2023-05-07T10:46:32;14.70;99.70
17202;DHT22;8717;53.588;10.176;2023-05-07T10:49:12;14.80;99.60
17202;DHT22;8717;53.588;10.176;2023-05-07T10:52:13;14.90;99.70
17202;DHT22;8717;53.588;10.176;2023-05-07T10:54:46;14.90;99.20
17202;DHT22;8717;53.588;10.176;2023-05-07T10:57:35;14.90;98.60
17202;DHT22;8717;53.588;10.176;2023-05-07T11:00:40;14.80;98.20
17202;DHT22;8717;53.588;10.176;2023-05-07T11:03:11;14.60;97.30
17202;DHT22;8717;53.588;10.176;2023-05-07T11:06:08;14.40;98.70
17202;DHT22;8717;53.588;10.176;2023-05-07T11:08:53;14.40;98.30
17202;DHT22;8717;53.588;10.176;2023-05-07T11:11:45;14.40;99.40
17202;DHT22;8717;53.588;10.176;2023-05-07T11:14:45;14.40;98.80
17202;DHT22;8717;53.588;10.176;2023-05-07T11:17:17;14.40;98.50
17202;DHT22;8717;53.588;10.176;2023-05-07T11:19:50;14.40;98.50
17202;DHT22;8717;53.588;10.176;2023-05-07T11:22:36;14.30;98.20
17202;DHT22;8717;53.588;10.176;2023-05-07T11:25:37;14.50;98.90
17202;DHT22;8717;53.588;10.176;2023-05-07T11:28:11;14.60;99.10
17202;DHT22;8717;53.588;10.176;2023-05-07T11:30:48;14.70;99.40
17202;DHT22;8717;53.588;10.176;2023-05-07T11:33:18;14.90;98.10
17202;DHT22;8717;53.588;10.176;2023-05-07T11:35:47;14.90;97.80
17202;DHT22;8717;53.588;10.176;2023-05-07T11:38:17;15.00;98.00
17202;DHT22;8717;53.588;10.176;2023-05-07T11:40:51;15.00;97.70
17202;DHT22;8717;53.588;10.176;2023-05-07T11:43:18;14.90;97.30
17202;DHT22;8717;53.588;10.176;2023-05-07T11:45:45;15.00;98.10
17202;DHT22;8717;53.588;10.176;2023-05-07T11:48:14;14.90;97.80
17202;DHT22;8717;53.588;10.176;2023-05-07T11:50:50;15.00;97.80
17202;DHT22;8717;53.588;10.176;2023-05-07T11:53:17;15.10;97.70
17202;DHT22;8717;53.588;10.176;2023-05-07T11:55:44;15.20;98.00
17202;DHT22;8717;53.588;10.176;2023-05-07T11:58:12;15.40;98.00
17202;DHT22;8717;53.588;10.176;2023-05-07T12:00:48;15.50;96.50
17202;DHT22;8717;53.588;10.176;2023-05-07T12:03:17;15.60;97.20
17202;DHT22;8717;53.588;10.176;2023-05-07T12:05:44;15.70;97.90
17202;DHT22;8717;53.588;10.176;2023-05-07T12:08:13;15.90;96.70
17202;DHT22;8717;53.588;10.176;2023-05-07T12:10:41;16.10;97.40
17202;DHT22;8717;53.588;10.176;2023-05-07T12:13:14;16.30;97.60
17202;DHT22;8717;53.588;10.176;2023-05-07T12:15:41;16.50;97.20
17202;DHT22;8717;53.588;10.176;2023-05-07T12:18:08;16.80;97.80
17202;DHT22;8717;53.588;10.176;2023-05-07T12:20:37;17.10;97.20
17202;DHT22;8717;53.588;10.176;2023-05-07T12:23:03;17.30;96.00
17202;DHT22;8717;53.588;10.176;2023-05-07T12:25:30;17.50;96.20
17202;DHT22;8717;53.588;10.176;2023-05-07T12:27:57;17.50;95.40
17202;DHT22;8717;53.588;10.176;2023-05-07T12:30:26;17.60;95.30
17202;DHT22;8717;53.588;10.176;2023-05-07T12:32:53;17.60;93.50
17202;DHT22;8717;53.588;10.176;2023-05-07T12:35:26;17.50;93.90
17202;DHT22;8717;53.588;10.176;2023-05-07T12:37:58;17.50;93.60
17202;DHT22;8717;53.588;10.176;2023-05-07T12:40:35;17.30;93.50
17202;DHT22;8717;53.588;10.176;2023-05-07T12:43:02;17.20;93.20
17202;DHT22;8717;53.588;10.176;2023-05-07T12:45:29;17.10;94.10
17202;DHT22;8717;53.588;10.176;2023-05-07T12:47:56;17.10;94.10
17202;DHT22;8717;53.588;10.176;2023-05-07T12:50:31;17.00;93.80
17202;DHT22;8717;53.588;10.176;2023-05-07T12:52:59;16.90;93.30
17202;DHT22;8717;53.588;10.176;2023-05-07T12:55:26;16.90;94.30
17202;DHT22;8717;53.588;10.176;2023-05-07T12:57:53;16.80;94.30
17202;DHT22;8717;53.588;10.176;2023-05-07T13:00:33;16.80;94.40
17202;DHT22;8717;53.588;10.176;2023-05-07T13:02:59;16.70;93.40
17202;DHT22;8717;53.588;10.176;2023-05-07T13:05:26;16.70;94.40
17202;DHT22;8717;53.588;10.176;2023-05-07T13:07:53;16.70;94.40
17202;DHT22;8717;53.588;10.176;2023-05-07T13:10:21;16.70;93.20
17202;DHT22;8717;53.588;10.176;2023-05-07T13:12:48;16.60;93.10
17202;DHT22;8717;53.588;10.176;2023-05-07T13:15:15;16.60;94.10
17202;DHT22;8717;53.588;10.176;2023-05-07T13:17:42;16.70;94.80
17202;DHT22;8717;53.588;10.176;2023-05-07T13:20:10;16.70;94.10
17202;DHT22;8717;53.588;10.176;2023-05-07T13:22:37;16.80;93.60
17202;DHT22;8717;53.588;10.176;2023-05-07T13:25:04;16.90;94.50
17202;DHT22;8717;53.588;10.176;2023-05-07T13:27:32;17.10;94.30
17202;DHT22;8717;53.588;10.176;2023-05-07T13:30:01;17.20;94.80
17202;DHT22;8717;53.588;10.176;2023-05-07T13:32:27;17.40;93.20
17202;DHT22;8717;53.588;10.176;2023-05-07T13:34:54;17.40;92.70
17202;DHT22;8717;53.588;10.176;2023-05-07T13:37:21;17.40;92.90
17202;DHT22;8717;53.588;10.176;2023-05-07T13:39:48;17.40;93.40
17202;DHT22;8717;53.588;10.176;2023-05-07T13:42:14;17.40;93.60
17202;DHT22;8717;53.588;10.176;2023-05-07T13:44:42;17.50;94.10
17202;DHT22;8717;53.588;10.176;2023-05-07T13:47:09;17.70;94.00
17202;DHT22;8717;53.588;10.176;2023-05-07T13:49:36;17.90;94.20
17202;DHT22;8717;53.588;10.176;2023-05-07T13:52:02;18.10;94.40
17202;DHT22;8717;53.588;10.176;2023-05-07T13:54:29;18.30;93.80
17202;DHT22;8717;53.588;10.176;2023-05-07T13:56:56;18.50;92.30
17202;DHT22;8717;53.588;10.176;2023-05-07T13:59:22;18.70;91.20
17202;DHT22;8717;53.588;10.176;2023-05-07T14:01:50;18.70;90.70
17202;DHT22;8717;53.588;10.176;2023-05-07T14:04:17;18.70;91.10
17202;DHT22;8717;53.588;10.176;2023-05-07T14:06:44;18.70;90.40
17202;DHT22;8717;53.588;10.176;2023-05-07T14:09:11;18.60;90.10
17202;DHT22;8717;53.588;10.176;2023-05-07T14:11:38;18.50;89.90
17202;DHT22;8717;53.588;10.176;2023-05-07T14:14:05;18.50;90.00
17202;DHT22;8717;53.588;10.176;2023-05-07T14:16:32;18.30;87.70
17202;DHT22;8717;53.588;10.176;2023-05-07T14:19:00;18.30;88.40
17202;DHT22;8717;53.588;10.176;2023-05-07T14:21:26;18.30;90.20
17202;DHT22;8717;53.588;10.176;2023-05-07T14:23:53;18.30;90.70
17202;DHT22;8717;53.588;10.176;2023-05-07T14:26:21;18.30;90.10
17202;DHT22;8717;53.588;10.176;2023-05-07T14:28:48;18.40;90.00
17202;DHT22;8717;53.588;10.176;2023-05-07T14:31:15;18.40;87.30
17202;DHT22;8717;53.588;10.176;2023-05-07T14:33:42;18.40;87.80
17202;DHT22;8717;53.588;10.176;2023-05-07T14:36:10;18.40;88.00
17202;DHT22;8717;53.588;10.176;2023-05-07T14:38:36;18.40;88.00
17202;DHT22;8717;53.588;10.176;2023-05-07T14:41:03;18.30;87.80
17202;DHT22;8717;53.588;10.176;2023-05-07T14:43:30;18.10;87.00
17202;DHT22;8717;53.588;10.176;2023-05-07T14:45:56;17.90;88.90
17202;DHT22;8717;53.588;10.176;2023-05-07T14:48:23;17.70;87.90
17202;DHT22;8717;53.588;10.176;2023-05-07T14:50:50;17.40;88.40
17202;DHT22;8717;53.588;10.176;2023-05-07T14:53:18;17.20;88.90
17202;DHT22;8717;53.588;10.176;2023-05-07T14:55:44;17.00;89.50
17202;DHT22;8717;53.588;10.176;2023-05-07T14:58:11;16.90;90.40
17202;DHT22;8717;53.588;10.176;2023-05-07T15:00:38;16.70;90.70
17202;DHT22;8717;53.588;10.176;2023-05-07T15:03:07;16.70;91.00
17202;DHT22;8717;53.588;10.176;2023-05-07T15:05:34;16.60;90.80
17202;DHT22;8717;53.588;10.176;2023-05-07T15:08:01;16.50;91.00
17202;DHT22;8717;53.588;10.176;2023-05-07T15:10:29;16.50;91.10
17202;DHT22;8717;53.588;10.176;2023-05-07T15:12:56;16.40;90.70
17202;DHT22;8717;53.588;10.176;2023-05-07T15:15:22;16.40;90.70
17202;DHT22;8717;53.588;10.176;2023-05-07T15:17:49;16.40;91.20
17202;DHT22;8717;53.588;10.176;2023-05-07T15:20:16;16.40;91.40
17202;DHT22;8717;53.588;10.176;2023-05-07T15:22:43;16.40;91.50
17202;DHT22;8717;53.588;10.176;2023-05-07T15:25:10;16.30;91.50
17202;DHT22;8717;53.588;10.176;2023-05-07T15:27:38;16.30;91.50
17202;DHT22;8717;53.588;10.176;2023-05-07T15:30:06;16.30;91.90
17202;DHT22;8717;53.588;10.176;2023-05-07T15:32:32;16.40;92.20
17202;DHT22;8717;53.588;10.176;2023-05-07T15:34:59;16.30;91.30
17202;DHT22;8717;53.588;10.176;2023-05-07T15:37:26;16.20;90.90
17202;DHT22;8717;53.588;10.176;2023-05-07T15:39:52;16.30;91.60
17202;DHT22;8717;53.588;10.176;2023-05-07T15:42:19;16.30;91.60
17202;DHT22;8717;53.588;10.176;2023-05-07T15:44:47;16.40;91.90
17202;DHT22;8717;53.588;10.176;2023-05-07T15:47:14;16.50;91.30